Albion, MI

3:16 PM EST on March 05, 2015 (GMT -0500)
Homer, MI | Change Station
CLOSE
Current Station
Personal Weather Station
Location: Homer, MI
Elevation: 968 ft
Nearby Weather Stations

Elev 968 ft 42.15 °N, 84.80 °W | Updated 10 minutes ago

Mostly Cloudy
Mostly Cloudy
19.6 °F
Feels Like 14 °F
N
3.7
Wind Variable Wind from West

Today
High -- | Low -- °F
--% Chance of Precip.
Yesterday
High -- | Low -- °F
Precip. -- in
7:08 AM 6:33 PM
Full, 100% visible
Pressure 30.37 in
Visibility 10.0 miles
Clouds Scattered Clouds 4100 ft
Windchill 14 °F
Dew Point 1 °F
Humidity 43%
Rainfall in
Snow Depth Not available.
UV 3 out of 12
Pollen .50 out of 12
Air Quality Not available.
Flu Activity Not available.
METAR KRMY 051954Z AUTO 32006KT 10SM SCT041 M08/M18 A3037 RMK AO2 T10851180

More Conditions Fewer Conditions

Pressure 30.37 in
Visibility 10.0 miles
Clouds Scattered Clouds 4100 ft
Windchill 14 °F
Dew Point 1 °F
Humidity 43%
Rainfall in
Snow Depth Not available.
UV 3 out of 12
Pollen .50 out of 12
Air Quality Not available.
Flu Activity Not available.
METAR KRMY 051954Z AUTO 32006KT 10SM SCT041 M08/M18 A3037 RMK AO2 T10851180

More Conditions Fewer Conditions

10-Day Weather Forecast

Almanac

Astronomy

Mar. 05, 2015 Rise Set
Actual Time
Civil Twilight
Nautical Twilight
Astronomical Twilight
Moon
Length of Visible Light
Length of Day
Tomorrow will be .
, % of the Moon is Illuminated

Today's Extremes

State Highs State Lows

Community

WunderPhotos

Upload Photos

1,802,938 photos uploaded!

WunderBlogs® & News

Nearby

Air Quality

  Air Quality AQ Index Pollutant
Not available.

Snow Depth

Station Depth Elevation

Earthquake Activity

City Distance Mag. Time & Date
Minimum magnitude displayed is 2.5.

Coastal Water Temperatures

Place Temperature

Nearby Weather Stations